KLEX/LEX METAR and TAF weather

Enter ICAO airport designator
Station Type Date Time Source
KLEX METAR 2019/06/27 03:54 UTC NOAA

KLEX 270354Z 17004KT 10SM CLR 24/19 A3018 RMK AO2 SLP208 T02440189


Station Type Date Time Source
KLEX Decoded METAR 2019/06/27 03:54 UTC NOAA

LEXINGTON BLUE GRASS AIRPORT, KY, United States (KLEX) 38-02N 084-36W 300M
Jun 26, 2019 - 11:54 PM EDT / 2019.06.27 0354 UTC
Wind: from the S (170 degrees) at 5 MPH (4 KT):0
Visibility: 10 mile(s):0
Sky conditions: clear
Temperature: 75.9 F (24.4 C)
Dew Point: 66.0 F (18.9 C)
Relative Humidity: 71%
Pressure (altimeter): 30.18 in. Hg (1022 hPa)
ob: KLEX 270354Z 17004KT 10SM CLR 24/19 A3018 RMK AO2 SLP208 T02440189
cycle: 4

Station Type Date Time Source
KLEX TAF 2019/06/26 18:22 UTC NOAA

TAF KLEX 261720Z 2618/2718 23005KT P6SM SCT035 SCT250
FM270100 VRB04KT P6SM SCT250

Example: see airport list